Aviation Digital Data Service (ADDS)

Output produced by METARs form (0904 UTC 29 March 2017)
found at http://aviationweather.gov/adds/metars/
 
KPHL 290540Z 2906/3012 34004KT P6SM BKN040 
     FM291000 35010KT P6SM BKN040 
     FM291400 34013G20KT P6SM SCT040 
     FM292300 34008KT P6SM SKC